Stratton, Illinois
Current Conditions -  °F | °C
As of 2:55 PM on Friday 31 Oct 2014 (Local Time) from KMVN Reporting Station
Overcast Overcast  
Wind Chill: 37°   Ceiling: 5000
Heat Index: 43°   Visibility: 10mi
Dew Point: 25°   Wind: 10mph
Humidity: 49%   Direction: 350°N
Pressure: 30.22"   Gusts: 21mph
Location:  38.3716°N, 88.6497°W
Report Text: KMVN 311955Z AUTO 35009G18KT 310V040 10SM FEW046 OVC050 06/M04 A3022 RMK AO1
Loading
Personal Weather Stations






























Interactive Weather Map
Tropical Storm Tracking
New forecast layout! Learn more

10-Day Weather Forecast

Advertisements
Track Severe Weather on mobile